Paintersville, Pennsylvania
Current Conditions -  °F | °C
As of 8:53 PM on Saturday 25 Oct 2014 (Local Time) from KUNV Reporting Station
Broken Clouds Broken Clouds  
Wind Chill: 61°   Ceiling: 7000
Heat Index: 61°   Visibility: 10mi
Dew Point: 50°   Wind: 14mph
Humidity: 68%   Direction: 250°WSW
Pressure: 29.66"   Gusts: NA
Location:  40.6073°N, 77.5812°W
Report Text: KUNV 260053Z 25012KT 10SM SCT050 BKN070 16/10 A2966
Loading
Personal Weather Stations






























Interactive Weather Map
Tropical Storm Tracking
New forecast layout! Learn more

10-Day Weather Forecast

Advertisements
Track Severe Weather on mobile